sensor_id;sensor_type;location;lat;lon;timestamp;P1;durP1;ratioP1;P2;durP2;ratioP2
5587;SDS011;2816;49.778;9.986;2023-11-19T00:00:45;6.30;;;4.43;;
5587;SDS011;2816;49.778;9.986;2023-11-19T00:03:13;8.00;;;3.87;;
5587;SDS011;2816;49.778;9.986;2023-11-19T00:05:40;4.20;;;3.80;;
5587;SDS011;2816;49.778;9.986;2023-11-19T00:08:07;6.20;;;3.83;;
5587;SDS011;2816;49.778;9.986;2023-11-19T00:10:34;6.20;;;3.80;;
5587;SDS011;2816;49.778;9.986;2023-11-19T00:13:01;4.70;;;3.50;;
5587;SDS011;2816;49.778;9.986;2023-11-19T00:15:29;4.40;;;3.50;;
5587;SDS011;2816;49.778;9.986;2023-11-19T00:17:56;4.20;;;3.33;;
5587;SDS011;2816;49.778;9.986;2023-11-19T00:20:24;4.37;;;3.57;;
5587;SDS011;2816;49.778;9.986;2023-11-19T00:22:51;5.37;;;3.17;;
5587;SDS011;2816;49.778;9.986;2023-11-19T00:25:18;5.53;;;3.67;;
5587;SDS011;2816;49.778;9.986;2023-11-19T00:27:46;5.60;;;4.40;;
5587;SDS011;2816;49.778;9.986;2023-11-19T00:30:13;4.20;;;3.17;;
5587;SDS011;2816;49.778;9.986;2023-11-19T00:32:41;3.53;;;3.23;;
5587;SDS011;2816;49.778;9.986;2023-11-19T00:35:09;6.57;;;4.30;;
5587;SDS011;2816;49.778;9.986;2023-11-19T00:37:37;5.00;;;4.50;;
5587;SDS011;2816;49.778;9.986;2023-11-19T00:40:05;3.90;;;3.60;;
5587;SDS011;2816;49.778;9.986;2023-11-19T00:42:33;4.40;;;4.00;;
5587;SDS011;2816;49.778;9.986;2023-11-19T00:45:00;4.80;;;3.40;;
5587;SDS011;2816;49.778;9.986;2023-11-19T00:47:27;6.53;;;3.80;;
5587;SDS011;2816;49.778;9.986;2023-11-19T00:49:56;3.90;;;3.60;;
5587;SDS011;2816;49.778;9.986;2023-11-19T00:52:22;6.23;;;3.60;;
5587;SDS011;2816;49.778;9.986;2023-11-19T00:54:51;6.00;;;4.20;;
5587;SDS011;2816;49.778;9.986;2023-11-19T00:57:18;9.23;;;3.37;;
5587;SDS011;2816;49.778;9.986;2023-11-19T00:59:45;8.30;;;4.00;;
5587;SDS011;2816;49.778;9.986;2023-11-19T01:02:12;3.70;;;3.40;;
5587;SDS011;2816;49.778;9.986;2023-11-19T01:04:40;4.63;;;3.70;;
5587;SDS011;2816;49.778;9.986;2023-11-19T01:07:07;4.10;;;3.47;;
5587;SDS011;2816;49.778;9.986;2023-11-19T01:09:37;3.37;;;3.03;;
5587;SDS011;2816;49.778;9.986;2023-11-19T01:12:06;4.80;;;3.80;;
5587;SDS011;2816;49.778;9.986;2023-11-19T01:14:34;3.90;;;3.30;;
5587;SDS011;2816;49.778;9.986;2023-11-19T01:17:01;4.97;;;3.20;;
5587;SDS011;2816;49.778;9.986;2023-11-19T01:19:29;5.10;;;4.13;;
5587;SDS011;2816;49.778;9.986;2023-11-19T01:21:56;4.23;;;3.70;;
5587;SDS011;2816;49.778;9.986;2023-11-19T01:24:23;3.80;;;3.50;;
5587;SDS011;2816;49.778;9.986;2023-11-19T01:26:53;4.23;;;3.30;;
5587;SDS011;2816;49.778;9.986;2023-11-19T01:29:22;4.53;;;4.00;;
5587;SDS011;2816;49.778;9.986;2023-11-19T01:31:49;4.77;;;4.00;;
5587;SDS011;2816;49.778;9.986;2023-11-19T01:34:19;3.43;;;3.13;;
5587;SDS011;2816;49.778;9.986;2023-11-19T01:36:46;6.53;;;3.50;;
5587;SDS011;2816;49.778;9.986;2023-11-19T01:39:14;5.53;;;3.33;;
5587;SDS011;2816;49.778;9.986;2023-11-19T01:41:42;3.50;;;3.20;;
5587;SDS011;2816;49.778;9.986;2023-11-19T01:44:09;3.40;;;3.00;;
5587;SDS011;2816;49.778;9.986;2023-11-19T01:46:41;3.70;;;3.40;;
5587;SDS011;2816;49.778;9.986;2023-11-19T01:49:10;4.00;;;3.40;;
5587;SDS011;2816;49.778;9.986;2023-11-19T01:51:38;3.60;;;3.30;;
5587;SDS011;2816;49.778;9.986;2023-11-19T01:54:06;2.93;;;2.73;;
5587;SDS011;2816;49.778;9.986;2023-11-19T01:56:34;4.00;;;3.33;;
5587;SDS011;2816;49.778;9.986;2023-11-19T01:59:01;3.33;;;2.90;;
5587;SDS011;2816;49.778;9.986;2023-11-19T02:01:29;3.13;;;2.80;;
5587;SDS011;2816;49.778;9.986;2023-11-19T02:03:59;3.23;;;3.03;;
5587;SDS011;2816;49.778;9.986;2023-11-19T02:06:26;3.70;;;3.17;;
5587;SDS011;2816;49.778;9.986;2023-11-19T02:08:54;3.17;;;2.93;;
5587;SDS011;2816;49.778;9.986;2023-11-19T02:11:21;3.30;;;2.70;;
5587;SDS011;2816;49.778;9.986;2023-11-19T02:13:49;3.10;;;2.90;;
5587;SDS011;2816;49.778;9.986;2023-11-19T02:16:16;2.77;;;2.57;;
5587;SDS011;2816;49.778;9.986;2023-11-19T02:18:42;2.50;;;2.30;;
5587;SDS011;2816;49.778;9.986;2023-11-19T02:21:12;3.30;;;2.80;;
5587;SDS011;2816;49.778;9.986;2023-11-19T02:23:40;2.80;;;2.60;;
5587;SDS011;2816;49.778;9.986;2023-11-19T02:26:10;2.80;;;2.60;;
5587;SDS011;2816;49.778;9.986;2023-11-19T02:28:42;2.73;;;2.30;;
5587;SDS011;2816;49.778;9.986;2023-11-19T02:31:09;4.37;;;2.50;;
5587;SDS011;2816;49.778;9.986;2023-11-19T02:33:37;2.60;;;2.40;;
5587;SDS011;2816;49.778;9.986;2023-11-19T02:36:04;6.43;;;2.43;;
5587;SDS011;2816;49.778;9.986;2023-11-19T02:38:32;2.77;;;2.57;;
5587;SDS011;2816;49.778;9.986;2023-11-19T02:40:59;3.00;;;2.27;;
5587;SDS011;2816;49.778;9.986;2023-11-19T02:43:30;2.23;;;2.03;;
5587;SDS011;2816;49.778;9.986;2023-11-19T02:45:59;2.10;;;2.00;;
5587;SDS011;2816;49.778;9.986;2023-11-19T02:48:27;2.00;;;1.87;;
5587;SDS011;2816;49.778;9.986;2023-11-19T02:50:54;2.00;;;1.80;;
5587;SDS011;2816;49.778;9.986;2023-11-19T02:53:23;1.40;;;1.30;;
5587;SDS011;2816;49.778;9.986;2023-11-19T02:55:52;1.97;;;1.70;;
5587;SDS011;2816;49.778;9.986;2023-11-19T02:58:26;1.63;;;1.53;;
5587;SDS011;2816;49.778;9.986;2023-11-19T03:00:53;2.40;;;1.50;;
5587;SDS011;2816;49.778;9.986;2023-11-19T03:03:24;1.63;;;1.53;;
5587;SDS011;2816;49.778;9.986;2023-11-19T03:05:55;1.50;;;1.40;;
5587;SDS011;2816;49.778;9.986;2023-11-19T03:08:22;3.70;;;1.37;;
5587;SDS011;2816;49.778;9.986;2023-11-19T03:10:49;1.27;;;1.20;;
5587;SDS011;2816;49.778;9.986;2023-11-19T03:13:16;1.30;;;1.20;;
5587;SDS011;2816;49.778;9.986;2023-11-19T03:15:43;1.77;;;1.47;;
5587;SDS011;2816;49.778;9.986;2023-11-19T03:18:11;2.00;;;1.90;;
5587;SDS011;2816;49.778;9.986;2023-11-19T03:20:39;1.27;;;1.10;;
5587;SDS011;2816;49.778;9.986;2023-11-19T03:23:06;1.70;;;1.60;;
5587;SDS011;2816;49.778;9.986;2023-11-19T03:25:33;1.67;;;1.40;;
5587;SDS011;2816;49.778;9.986;2023-11-19T03:28:01;1.23;;;1.20;;
5587;SDS011;2816;49.778;9.986;2023-11-19T03:30:29;1.37;;;1.30;;
5587;SDS011;2816;49.778;9.986;2023-11-19T03:32:56;1.30;;;1.03;;
5587;SDS011;2816;49.778;9.986;2023-11-19T03:35:23;1.13;;;1.03;;
5587;SDS011;2816;49.778;9.986;2023-11-19T03:37:52;1.13;;;1.03;;
5587;SDS011;2816;49.778;9.986;2023-11-19T03:40:19;0.90;;;0.90;;
5587;SDS011;2816;49.778;9.986;2023-11-19T03:42:46;1.20;;;1.10;;
5587;SDS011;2816;49.778;9.986;2023-11-19T03:45:13;1.30;;;1.20;;
5587;SDS011;2816;49.778;9.986;2023-11-19T03:47:40;1.50;;;1.50;;
5587;SDS011;2816;49.778;9.986;2023-11-19T03:50:08;1.40;;;1.30;;
5587;SDS011;2816;49.778;9.986;2023-11-19T03:52:35;1.60;;;1.50;;
5587;SDS011;2816;49.778;9.986;2023-11-19T03:55:03;1.50;;;1.40;;
5587;SDS011;2816;49.778;9.986;2023-11-19T03:57:33;1.60;;;1.50;;
5587;SDS011;2816;49.778;9.986;2023-11-19T04:00:00;1.40;;;1.30;;
5587;SDS011;2816;49.778;9.986;2023-11-19T04:02:33;1.40;;;1.30;;
5587;SDS011;2816;49.778;9.986;2023-11-19T04:04:59;1.30;;;1.20;;
5587;SDS011;2816;49.778;9.986;2023-11-19T04:07:26;1.57;;;1.20;;
5587;SDS011;2816;49.778;9.986;2023-11-19T04:09:53;1.20;;;1.10;;
5587;SDS011;2816;49.778;9.986;2023-11-19T04:12:22;1.27;;;1.20;;
5587;SDS011;2816;49.778;9.986;2023-11-19T04:14:48;1.13;;;1.13;;
5587;SDS011;2816;49.778;9.986;2023-11-19T04:17:15;1.03;;;1.03;;
5587;SDS011;2816;49.778;9.986;2023-11-19T04:19:42;0.97;;;0.97;;
5587;SDS011;2816;49.778;9.986;2023-11-19T04:22:09;4.10;;;1.70;;
5587;SDS011;2816;49.778;9.986;2023-11-19T04:24:37;1.07;;;0.97;;
5587;SDS011;2816;49.778;9.986;2023-11-19T04:27:04;1.10;;;1.00;;
5587;SDS011;2816;49.778;9.986;2023-11-19T04:29:32;0.87;;;0.87;;
5587;SDS011;2816;49.778;9.986;2023-11-19T04:31:59;1.37;;;1.00;;
5587;SDS011;2816;49.778;9.986;2023-11-19T04:34:26;2.00;;;0.80;;
5587;SDS011;2816;49.778;9.986;2023-11-19T04:36:53;1.00;;;1.00;;
5587;SDS011;2816;49.778;9.986;2023-11-19T04:39:20;1.33;;;0.97;;
5587;SDS011;2816;49.778;9.986;2023-11-19T04:41:47;1.13;;;1.03;;
5587;SDS011;2816;49.778;9.986;2023-11-19T04:44:15;0.97;;;0.97;;
5587;SDS011;2816;49.778;9.986;2023-11-19T04:46:44;1.17;;;1.07;;
5587;SDS011;2816;49.778;9.986;2023-11-19T04:49:11;1.43;;;1.33;;
5587;SDS011;2816;49.778;9.986;2023-11-19T04:51:39;1.00;;;1.00;;
5587;SDS011;2816;49.778;9.986;2023-11-19T04:54:07;1.47;;;1.40;;
5587;SDS011;2816;49.778;9.986;2023-11-19T04:56:34;1.40;;;1.30;;
5587;SDS011;2816;49.778;9.986;2023-11-19T04:59:02;1.10;;;1.10;;
5587;SDS011;2816;49.778;9.986;2023-11-19T05:01:30;1.57;;;1.47;;
5587;SDS011;2816;49.778;9.986;2023-11-19T05:03:59;1.40;;;1.30;;
5587;SDS011;2816;49.778;9.986;2023-11-19T05:06:27;1.80;;;1.70;;
5587;SDS011;2816;49.778;9.986;2023-11-19T05:08:55;1.80;;;1.70;;
5587;SDS011;2816;49.778;9.986;2023-11-19T05:11:22;1.77;;;1.50;;
5587;SDS011;2816;49.778;9.986;2023-11-19T05:13:49;1.73;;;1.63;;
5587;SDS011;2816;49.778;9.986;2023-11-19T05:16:16;1.70;;;1.60;;
5587;SDS011;2816;49.778;9.986;2023-11-19T05:18:44;1.70;;;1.60;;
5587;SDS011;2816;49.778;9.986;2023-11-19T05:21:12;1.93;;;1.83;;
5587;SDS011;2816;49.778;9.986;2023-11-19T05:23:39;3.63;;;2.17;;
5587;SDS011;2816;49.778;9.986;2023-11-19T05:26:07;1.87;;;1.77;;
5587;SDS011;2816;49.778;9.986;2023-11-19T05:28:33;2.30;;;2.20;;
5587;SDS011;2816;49.778;9.986;2023-11-19T05:31:00;2.13;;;1.63;;
5587;SDS011;2816;49.778;9.986;2023-11-19T05:33:27;2.20;;;2.10;;
5587;SDS011;2816;49.778;9.986;2023-11-19T05:35:54;1.90;;;1.80;;
5587;SDS011;2816;49.778;9.986;2023-11-19T05:38:23;1.80;;;1.70;;
5587;SDS011;2816;49.778;9.986;2023-11-19T05:40:50;1.70;;;1.60;;
5587;SDS011;2816;49.778;9.986;2023-11-19T05:43:17;1.90;;;1.80;;
5587;SDS011;2816;49.778;9.986;2023-11-19T05:45:44;1.60;;;1.50;;
5587;SDS011;2816;49.778;9.986;2023-11-19T05:48:11;1.60;;;1.50;;
5587;SDS011;2816;49.778;9.986;2023-11-19T05:50:38;1.70;;;1.60;;
5587;SDS011;2816;49.778;9.986;2023-11-19T05:53:05;1.57;;;1.47;;
5587;SDS011;2816;49.778;9.986;2023-11-19T05:55:36;1.53;;;1.43;;
5587;SDS011;2816;49.778;9.986;2023-11-19T05:58:10;1.40;;;1.30;;
5587;SDS011;2816;49.778;9.986;2023-11-19T06:00:38;1.70;;;1.60;;
5587;SDS011;2816;49.778;9.986;2023-11-19T06:03:05;1.37;;;1.27;;
5587;SDS011;2816;49.778;9.986;2023-11-19T06:05:33;1.60;;;1.50;;
5587;SDS011;2816;49.778;9.986;2023-11-19T06:08:00;1.40;;;1.30;;
5587;SDS011;2816;49.778;9.986;2023-11-19T06:10:27;1.10;;;1.10;;
5587;SDS011;2816;49.778;9.986;2023-11-19T06:12:57;1.20;;;1.20;;
5587;SDS011;2816;49.778;9.986;2023-11-19T06:15:25;1.17;;;1.07;;
5587;SDS011;2816;49.778;9.986;2023-11-19T06:17:53;1.87;;;1.60;;
5587;SDS011;2816;49.778;9.986;2023-11-19T06:20:20;1.57;;;1.47;;
5587;SDS011;2816;49.778;9.986;2023-11-19T06:22:47;1.20;;;1.20;;
5587;SDS011;2816;49.778;9.986;2023-11-19T06:25:14;1.30;;;1.30;;
5587;SDS011;2816;49.778;9.986;2023-11-19T06:27:41;1.30;;;1.30;;
5587;SDS011;2816;49.778;9.986;2023-11-19T06:30:10;1.27;;;1.23;;
5587;SDS011;2816;49.778;9.986;2023-11-19T06:32:37;1.67;;;1.57;;
5587;SDS011;2816;49.778;9.986;2023-11-19T06:35:05;1.50;;;1.40;;
5587;SDS011;2816;49.778;9.986;2023-11-19T06:37:32;1.53;;;1.43;;
5587;SDS011;2816;49.778;9.986;2023-11-19T06:39:59;1.30;;;1.20;;
5587;SDS011;2816;49.778;9.986;2023-11-19T06:42:26;1.80;;;1.70;;
5587;SDS011;2816;49.778;9.986;2023-11-19T06:44:53;2.00;;;1.90;;
5587;SDS011;2816;49.778;9.986;2023-11-19T06:47:24;2.03;;;1.87;;
5587;SDS011;2816;49.778;9.986;2023-11-19T06:49:52;1.97;;;1.87;;
5587;SDS011;2816;49.778;9.986;2023-11-19T06:52:18;1.90;;;1.70;;
5587;SDS011;2816;49.778;9.986;2023-11-19T06:54:47;1.70;;;1.60;;
5587;SDS011;2816;49.778;9.986;2023-11-19T06:57:14;1.70;;;1.60;;
5587;SDS011;2816;49.778;9.986;2023-11-19T06:59:41;1.77;;;1.67;;
5587;SDS011;2816;49.778;9.986;2023-11-19T07:02:09;2.23;;;2.13;;
5587;SDS011;2816;49.778;9.986;2023-11-19T07:04:37;2.30;;;2.10;;
5587;SDS011;2816;49.778;9.986;2023-11-19T07:07:05;2.17;;;2.07;;
5587;SDS011;2816;49.778;9.986;2023-11-19T07:09:32;1.90;;;1.80;;
5587;SDS011;2816;49.778;9.986;2023-11-19T07:11:59;1.90;;;1.80;;
5587;SDS011;2816;49.778;9.986;2023-11-19T07:14:26;2.20;;;2.00;;
5587;SDS011;2816;49.778;9.986;2023-11-19T07:16:53;2.20;;;2.10;;
5587;SDS011;2816;49.778;9.986;2023-11-19T07:19:20;2.70;;;2.50;;
5587;SDS011;2816;49.778;9.986;2023-11-19T07:21:49;2.47;;;2.23;;
5587;SDS011;2816;49.778;9.986;2023-11-19T07:24:16;2.00;;;1.90;;
5587;SDS011;2816;49.778;9.986;2023-11-19T07:26:43;2.30;;;2.10;;
5587;SDS011;2816;49.778;9.986;2023-11-19T07:29:10;1.90;;;1.80;;
5587;SDS011;2816;49.778;9.986;2023-11-19T07:31:37;1.80;;;1.70;;
5587;SDS011;2816;49.778;9.986;2023-11-19T07:34:04;1.90;;;1.80;;
5587;SDS011;2816;49.778;9.986;2023-11-19T07:36:34;1.90;;;1.80;;
5587;SDS011;2816;49.778;9.986;2023-11-19T07:39:02;2.37;;;1.87;;
5587;SDS011;2816;49.778;9.986;2023-11-19T07:41:30;2.93;;;1.57;;
5587;SDS011;2816;49.778;9.986;2023-11-19T07:43:57;1.30;;;1.23;;
5587;SDS011;2816;49.778;9.986;2023-11-19T07:46:23;1.70;;;1.60;;
5587;SDS011;2816;49.778;9.986;2023-11-19T07:48:52;1.90;;;1.80;;
5587;SDS011;2816;49.778;9.986;2023-11-19T07:51:19;1.80;;;1.70;;
5587;SDS011;2816;49.778;9.986;2023-11-19T07:53:46;1.80;;;1.57;;
5587;SDS011;2816;49.778;9.986;2023-11-19T07:56:15;1.63;;;1.53;;
5587;SDS011;2816;49.778;9.986;2023-11-19T07:58:42;3.13;;;1.80;;
5587;SDS011;2816;49.778;9.986;2023-11-19T08:01:09;1.53;;;1.43;;
5587;SDS011;2816;49.778;9.986;2023-11-19T08:03:36;1.70;;;1.60;;
5587;SDS011;2816;49.778;9.986;2023-11-19T08:06:03;1.50;;;1.40;;
5587;SDS011;2816;49.778;9.986;2023-11-19T08:08:30;1.60;;;1.50;;
5587;SDS011;2816;49.778;9.986;2023-11-19T08:10:58;2.00;;;1.90;;
5587;SDS011;2816;49.778;9.986;2023-11-19T08:13:27;1.60;;;1.50;;
5587;SDS011;2816;49.778;9.986;2023-11-19T08:15:54;1.93;;;1.50;;
5587;SDS011;2816;49.778;9.986;2023-11-19T08:18:21;1.70;;;1.60;;
5587;SDS011;2816;49.778;9.986;2023-11-19T08:20:48;2.07;;;1.97;;
5587;SDS011;2816;49.778;9.986;2023-11-19T08:23:18;2.70;;;2.50;;
5587;SDS011;2816;49.778;9.986;2023-11-19T08:25:45;2.50;;;2.30;;
5587;SDS011;2816;49.778;9.986;2023-11-19T08:28:12;3.30;;;2.37;;
5587;SDS011;2816;49.778;9.986;2023-11-19T08:30:41;3.10;;;1.67;;
5587;SDS011;2816;49.778;9.986;2023-11-19T08:33:09;1.47;;;1.37;;
5587;SDS011;2816;49.778;9.986;2023-11-19T08:35:36;2.53;;;2.30;;
5587;SDS011;2816;49.778;9.986;2023-11-19T08:38:03;3.20;;;2.17;;
5587;SDS011;2816;49.778;9.986;2023-11-19T08:40:30;3.03;;;2.57;;
5587;SDS011;2816;49.778;9.986;2023-11-19T08:42:57;5.23;;;2.60;;
5587;SDS011;2816;49.778;9.986;2023-11-19T08:45:24;4.57;;;3.00;;
5587;SDS011;2816;49.778;9.986;2023-11-19T08:47:52;3.00;;;2.20;;
5587;SDS011;2816;49.778;9.986;2023-11-19T08:50:20;3.00;;;2.70;;
5587;SDS011;2816;49.778;9.986;2023-11-19T08:52:47;6.67;;;2.73;;
5587;SDS011;2816;49.778;9.986;2023-11-19T08:55:14;2.30;;;2.10;;
5587;SDS011;2816;49.778;9.986;2023-11-19T08:57:41;3.20;;;2.40;;
5587;SDS011;2816;49.778;9.986;2023-11-19T09:00:08;3.30;;;2.47;;
5587;SDS011;2816;49.778;9.986;2023-11-19T09:02:36;2.40;;;2.20;;
5587;SDS011;2816;49.778;9.986;2023-11-19T09:05:06;2.80;;;2.60;;
5587;SDS011;2816;49.778;9.986;2023-11-19T09:07:34;2.83;;;2.07;;
5587;SDS011;2816;49.778;9.986;2023-11-19T09:10:01;5.43;;;2.17;;
5587;SDS011;2816;49.778;9.986;2023-11-19T09:12:30;4.30;;;2.13;;
5587;SDS011;2816;49.778;9.986;2023-11-19T09:14:57;4.73;;;2.30;;
5587;SDS011;2816;49.778;9.986;2023-11-19T09:17:23;2.43;;;2.00;;
5587;SDS011;2816;49.778;9.986;2023-11-19T09:19:50;4.73;;;2.40;;
5587;SDS011;2816;49.778;9.986;2023-11-19T09:22:18;4.00;;;3.13;;
5587;SDS011;2816;49.778;9.986;2023-11-19T09:24:46;2.67;;;2.43;;
5587;SDS011;2816;49.778;9.986;2023-11-19T09:27:13;4.13;;;2.63;;
5587;SDS011;2816;49.778;9.986;2023-11-19T09:29:40;5.60;;;2.80;;
5587;SDS011;2816;49.778;9.986;2023-11-19T09:32:08;4.00;;;2.70;;
5587;SDS011;2816;49.778;9.986;2023-11-19T09:34:35;5.43;;;3.20;;
5587;SDS011;2816;49.778;9.986;2023-11-19T09:37:02;4.50;;;2.70;;
5587;SDS011;2816;49.778;9.986;2023-11-19T09:39:30;4.93;;;2.47;;
5587;SDS011;2816;49.778;9.986;2023-11-19T09:41:57;5.53;;;2.43;;
5587;SDS011;2816;49.778;9.986;2023-11-19T09:44:24;2.33;;;2.00;;
5587;SDS011;2816;49.778;9.986;2023-11-19T09:46:51;7.20;;;3.73;;
5587;SDS011;2816;49.778;9.986;2023-11-19T09:49:20;6.17;;;2.37;;
5587;SDS011;2816;49.778;9.986;2023-11-19T09:51:49;9.07;;;2.30;;
5587;SDS011;2816;49.778;9.986;2023-11-19T09:54:16;6.00;;;3.23;;
5587;SDS011;2816;49.778;9.986;2023-11-19T09:56:44;4.57;;;2.30;;
5587;SDS011;2816;49.778;9.986;2023-11-19T09:59:12;3.00;;;2.13;;
5587;SDS011;2816;49.778;9.986;2023-11-19T10:01:39;10.63;;;2.60;;
5587;SDS011;2816;49.778;9.986;2023-11-19T10:04:06;4.93;;;2.80;;
5587;SDS011;2816;49.778;9.986;2023-11-19T10:06:34;4.60;;;2.43;;
5587;SDS011;2816;49.778;9.986;2023-11-19T10:09:01;4.63;;;2.57;;
5587;SDS011;2816;49.778;9.986;2023-11-19T10:11:30;3.47;;;2.27;;
5587;SDS011;2816;49.778;9.986;2023-11-19T10:13:58;9.20;;;2.73;;
5587;SDS011;2816;49.778;9.986;2023-11-19T10:16:29;4.17;;;2.70;;
5587;SDS011;2816;49.778;9.986;2023-11-19T10:18:57;4.23;;;1.90;;
5587;SDS011;2816;49.778;9.986;2023-11-19T10:21:24;5.10;;;2.10;;
5587;SDS011;2816;49.778;9.986;2023-11-19T10:23:53;4.10;;;1.70;;
5587;SDS011;2816;49.778;9.986;2023-11-19T10:26:22;5.90;;;1.93;;
5587;SDS011;2816;49.778;9.986;2023-11-19T10:28:49;3.07;;;1.70;;
5587;SDS011;2816;49.778;9.986;2023-11-19T10:31:18;2.27;;;1.60;;
5587;SDS011;2816;49.778;9.986;2023-11-19T10:33:48;2.53;;;1.67;;
5587;SDS011;2816;49.778;9.986;2023-11-19T10:36:15;4.90;;;2.30;;
5587;SDS011;2816;49.778;9.986;2023-11-19T10:38:51;7.30;;;2.30;;
5587;SDS011;2816;49.778;9.986;2023-11-19T10:41:26;2.87;;;2.17;;
5587;SDS011;2816;49.778;9.986;2023-11-19T10:43:53;6.43;;;2.50;;
5587;SDS011;2816;49.778;9.986;2023-11-19T10:46:21;2.83;;;1.77;;
5587;SDS011;2816;49.778;9.986;2023-11-19T10:48:48;4.47;;;1.97;;
5587;SDS011;2816;49.778;9.986;2023-11-19T10:51:18;3.50;;;1.80;;
5587;SDS011;2816;49.778;9.986;2023-11-19T10:53:49;5.90;;;1.80;;
5587;SDS011;2816;49.778;9.986;2023-11-19T10:56:16;3.13;;;2.13;;
5587;SDS011;2816;49.778;9.986;2023-11-19T10:58:47;5.23;;;2.23;;
5587;SDS011;2816;49.778;9.986;2023-11-19T11:01:18;2.70;;;1.60;;
5587;SDS011;2816;49.778;9.986;2023-11-19T11:03:48;4.93;;;2.50;;
5587;SDS011;2816;49.778;9.986;2023-11-19T11:06:19;3.30;;;2.10;;
5587;SDS011;2816;49.778;9.986;2023-11-19T11:08:47;8.47;;;3.80;;
5587;SDS011;2816;49.778;9.986;2023-11-19T11:11:15;8.23;;;2.80;;
5587;SDS011;2816;49.778;9.986;2023-11-19T11:13:46;13.13;;;3.43;;
5587;SDS011;2816;49.778;9.986;2023-11-19T11:16:15;10.73;;;3.87;;
5587;SDS011;2816;49.778;9.986;2023-11-19T11:18:45;8.93;;;2.97;;
5587;SDS011;2816;49.778;9.986;2023-11-19T11:21:15;6.63;;;2.33;;
5587;SDS011;2816;49.778;9.986;2023-11-19T11:23:52;7.03;;;1.93;;
5587;SDS011;2816;49.778;9.986;2023-11-19T11:26:45;6.13;;;2.13;;
5587;SDS011;2816;49.778;9.986;2023-11-19T11:29:37;7.10;;;1.73;;
5587;SDS011;2816;49.778;9.986;2023-11-19T11:32:15;2.40;;;1.23;;
5587;SDS011;2816;49.778;9.986;2023-11-19T11:35:01;4.03;;;1.60;;
5587;SDS011;2816;49.778;9.986;2023-11-19T11:37:43;6.13;;;2.03;;
5587;SDS011;2816;49.778;9.986;2023-11-19T11:40:13;5.13;;;1.90;;
5587;SDS011;2816;49.778;9.986;2023-11-19T11:42:41;3.10;;;1.90;;
5587;SDS011;2816;49.778;9.986;2023-11-19T11:45:08;6.30;;;2.20;;
5587;SDS011;2816;49.778;9.986;2023-11-19T11:50:48;5.10;;;2.03;;
5587;SDS011;2816;49.778;9.986;2023-11-19T11:53:17;2.30;;;2.20;;
5587;SDS011;2816;49.778;9.986;2023-11-19T11:55:57;9.03;;;5.33;;
5587;SDS011;2816;49.778;9.986;2023-11-19T11:58:26;7.43;;;4.10;;
5587;SDS011;2816;49.778;9.986;2023-11-19T12:00:58;4.20;;;2.40;;
5587;SDS011;2816;49.778;9.986;2023-11-19T12:03:27;4.60;;;2.17;;
5587;SDS011;2816;49.778;9.986;2023-11-19T12:05:57;4.27;;;2.33;;
5587;SDS011;2816;49.778;9.986;2023-11-19T12:08:25;5.17;;;1.90;;
5587;SDS011;2816;49.778;9.986;2023-11-19T12:10:54;3.53;;;2.30;;
5587;SDS011;2816;49.778;9.986;2023-11-19T12:13:23;4.53;;;1.90;;
5587;SDS011;2816;49.778;9.986;2023-11-19T12:16:09;2.33;;;2.10;;
5587;SDS011;2816;49.778;9.986;2023-11-19T12:18:38;7.53;;;2.73;;
5587;SDS011;2816;49.778;9.986;2023-11-19T12:21:08;3.40;;;1.80;;
5587;SDS011;2816;49.778;9.986;2023-11-19T12:23:44;3.20;;;1.60;;
5587;SDS011;2816;49.778;9.986;2023-11-19T12:26:32;7.67;;;2.10;;
5587;SDS011;2816;49.778;9.986;2023-11-19T12:29:03;5.30;;;1.70;;
5587;SDS011;2816;49.778;9.986;2023-11-19T12:31:31;5.83;;;1.70;;
5587;SDS011;2816;49.778;9.986;2023-11-19T12:34:01;3.80;;;1.70;;
5587;SDS011;2816;49.778;9.986;2023-11-19T12:36:33;3.80;;;1.87;;
5587;SDS011;2816;49.778;9.986;2023-11-19T12:39:01;3.07;;;1.70;;
5587;SDS011;2816;49.778;9.986;2023-11-19T12:41:28;2.57;;;1.50;;
5587;SDS011;2816;49.778;9.986;2023-11-19T12:44:08;5.60;;;1.70;;
5587;SDS011;2816;49.778;9.986;2023-11-19T12:46:36;7.10;;;1.60;;
5587;SDS011;2816;49.778;9.986;2023-11-19T12:49:03;4.23;;;1.77;;
5587;SDS011;2816;49.778;9.986;2023-11-19T12:51:31;6.10;;;1.90;;
5587;SDS011;2816;49.778;9.986;2023-11-19T12:53:59;7.03;;;1.90;;
5587;SDS011;2816;49.778;9.986;2023-11-19T12:56:26;6.00;;;1.80;;
5587;SDS011;2816;49.778;9.986;2023-11-19T12:58:54;5.77;;;1.50;;
5587;SDS011;2816;49.778;9.986;2023-11-19T13:01:21;5.83;;;2.00;;
5587;SDS011;2816;49.778;9.986;2023-11-19T13:03:48;3.20;;;1.73;;
5587;SDS011;2816;49.778;9.986;2023-11-19T13:06:16;5.10;;;1.83;;
5587;SDS011;2816;49.778;9.986;2023-11-19T13:08:46;2.00;;;1.43;;
5587;SDS011;2816;49.778;9.986;2023-11-19T13:11:31;4.07;;;1.60;;
5587;SDS011;2816;49.778;9.986;2023-11-19T13:13:59;5.77;;;1.73;;
5587;SDS011;2816;49.778;9.986;2023-11-19T13:16:28;4.10;;;1.40;;
5587;SDS011;2816;49.778;9.986;2023-11-19T13:18:54;4.13;;;1.60;;
5587;SDS011;2816;49.778;9.986;2023-11-19T13:21:22;4.77;;;1.70;;
5587;SDS011;2816;49.778;9.986;2023-11-19T13:23:49;5.40;;;1.93;;
5587;SDS011;2816;49.778;9.986;2023-11-19T13:26:15;2.00;;;1.50;;
5587;SDS011;2816;49.778;9.986;2023-11-19T13:28:44;10.23;;;1.93;;
5587;SDS011;2816;49.778;9.986;2023-11-19T13:31:11;4.87;;;1.80;;
5587;SDS011;2816;49.778;9.986;2023-11-19T13:33:39;3.53;;;1.70;;
5587;SDS011;2816;49.778;9.986;2023-11-19T13:36:06;4.50;;;1.80;;
5587;SDS011;2816;49.778;9.986;2023-11-19T13:38:34;8.00;;;2.43;;
5587;SDS011;2816;49.778;9.986;2023-11-19T13:41:02;7.07;;;2.50;;
5587;SDS011;2816;49.778;9.986;2023-11-19T13:43:30;5.33;;;2.07;;
5587;SDS011;2816;49.778;9.986;2023-11-19T13:45:58;11.77;;;4.03;;
5587;SDS011;2816;49.778;9.986;2023-11-19T13:48:26;9.10;;;3.33;;
5587;SDS011;2816;49.778;9.986;2023-11-19T13:50:54;6.13;;;1.90;;
5587;SDS011;2816;49.778;9.986;2023-11-19T13:53:21;11.83;;;3.07;;
5587;SDS011;2816;49.778;9.986;2023-11-19T13:55:47;7.27;;;3.27;;
5587;SDS011;2816;49.778;9.986;2023-11-19T13:58:13;8.97;;;2.80;;
5587;SDS011;2816;49.778;9.986;2023-11-19T14:00:41;4.70;;;2.17;;
5587;SDS011;2816;49.778;9.986;2023-11-19T14:03:09;7.37;;;2.33;;
5587;SDS011;2816;49.778;9.986;2023-11-19T14:05:36;4.30;;;1.70;;
5587;SDS011;2816;49.778;9.986;2023-11-19T14:08:04;7.63;;;2.00;;
5587;SDS011;2816;49.778;9.986;2023-11-19T14:10:36;4.93;;;2.03;;
5587;SDS011;2816;49.778;9.986;2023-11-19T14:13:05;4.53;;;2.13;;
5587;SDS011;2816;49.778;9.986;2023-11-19T14:15:32;4.80;;;2.13;;
5587;SDS011;2816;49.778;9.986;2023-11-19T14:18:00;9.80;;;2.10;;
5587;SDS011;2816;49.778;9.986;2023-11-19T14:20:29;6.17;;;2.10;;
5587;SDS011;2816;49.778;9.986;2023-11-19T14:22:56;8.90;;;2.33;;
5587;SDS011;2816;49.778;9.986;2023-11-19T14:25:23;3.73;;;1.80;;
5587;SDS011;2816;49.778;9.986;2023-11-19T14:27:50;4.10;;;2.10;;
5587;SDS011;2816;49.778;9.986;2023-11-19T14:30:17;7.30;;;2.50;;
5587;SDS011;2816;49.778;9.986;2023-11-19T14:32:44;5.83;;;2.80;;
5587;SDS011;2816;49.778;9.986;2023-11-19T14:35:11;5.10;;;1.80;;
5587;SDS011;2816;49.778;9.986;2023-11-19T14:37:40;4.07;;;1.83;;
5587;SDS011;2816;49.778;9.986;2023-11-19T14:40:07;6.80;;;2.30;;
5587;SDS011;2816;49.778;9.986;2023-11-19T14:42:36;3.33;;;1.73;;
5587;SDS011;2816;49.778;9.986;2023-11-19T14:45:04;5.30;;;2.10;;
5587;SDS011;2816;49.778;9.986;2023-11-19T14:47:32;4.40;;;2.00;;
5587;SDS011;2816;49.778;9.986;2023-11-19T14:49:59;7.03;;;2.27;;
5587;SDS011;2816;49.778;9.986;2023-11-19T14:52:26;7.70;;;1.60;;
5587;SDS011;2816;49.778;9.986;2023-11-19T14:54:55;4.10;;;1.90;;
5587;SDS011;2816;49.778;9.986;2023-11-19T14:57:22;3.03;;;1.50;;
5587;SDS011;2816;49.778;9.986;2023-11-19T14:59:49;5.73;;;2.20;;
5587;SDS011;2816;49.778;9.986;2023-11-19T15:02:16;3.83;;;1.40;;
5587;SDS011;2816;49.778;9.986;2023-11-19T15:04:44;3.30;;;1.80;;
5587;SDS011;2816;49.778;9.986;2023-11-19T15:07:11;13.43;;;2.00;;
5587;SDS011;2816;49.778;9.986;2023-11-19T15:09:38;5.77;;;1.60;;
5587;SDS011;2816;49.778;9.986;2023-11-19T15:12:06;10.53;;;1.77;;
5587;SDS011;2816;49.778;9.986;2023-11-19T15:14:33;4.43;;;2.37;;
5587;SDS011;2816;49.778;9.986;2023-11-19T15:17:01;5.23;;;2.20;;
5587;SDS011;2816;49.778;9.986;2023-11-19T15:19:30;3.97;;;1.60;;
5587;SDS011;2816;49.778;9.986;2023-11-19T15:21:57;4.20;;;1.97;;
5587;SDS011;2816;49.778;9.986;2023-11-19T15:24:25;5.37;;;1.70;;